This is the latest recevied weather packets stored in our database for station/object BAGASKAR. If no packets are shown the sender has not sent any weather packets the latest 10 day(s).
| Time | Temp. | Humidity | Pressure | Rain* | Wind** | Luminosity | Snow |
|---|---|---|---|---|---|---|---|
| 1778053642 | 7.22° C | 89% | 1013.3 hPa | - | - | - | - |
| 1778052442 | 6.67° C | 86% | 1013.2 hPa | - | - | - | - |
| 1778051242 | 7.78° C | 65% | 1013.1 hPa | - | - | - | - |
| 1778050042 | 7.78° C | 62% | 1013 hPa | - | - | - | - |
| 1778048842 | 7.22° C | 66% | 1012.9 hPa | - | - | - | - |
| 1778047642 | 6.67° C | 69% | 1012.8 hPa | - | - | - | - |
| 1778046441 | 6.11° C | 70% | 1012.6 hPa | - | - | - | - |
| 1778045242 | 5.56° C | 72% | 1012.4 hPa | - | - | - | - |
| 1778044042 | 5.56° C | 78% | 1012.2 hPa | - | - | - | - |
| 1778042842 | 5° C | 82% | 1011.9 hPa | - | - | - | - |
| 1778041641 | 4.44° C | 87% | 1011.8 hPa | - | - | - | - |
| 1778040443 | 4.44° C | 90% | 1011.6 hPa | - | - | - | - |
| 1778039242 | 3.89° C | 93% | 1011.5 hPa | - | - | - | - |
| 1778038041 | 3.89° C | 95% | 1011.3 hPa | - | - | - | - |
| 1778036841 | 3.33° C | 95% | 1011 hPa | - | - | - | - |
| 1778035641 | 2.78° C | 100% | 1010.8 hPa | - | - | - | - |
| 1778034441 | 2.78° C | 100% | 1010.7 hPa | - | - | - | - |
| 1778033241 | 3.33° C | 93% | 1010.5 hPa | - | - | - | - |
| 1778032041 | 3.33° C | 94% | 1010.3 hPa | - | - | - | - |
| 1778030841 | 3.33° C | 92% | 1010.2 hPa | - | - | - | - |
| 1778029641 | 3.33° C | 92% | 1010 hPa | - | - | - | - |
| 1778028440 | 3.33° C | 95% | 1009.9 hPa | - | - | - | - |
| 1778027241 | 3.33° C | 91% | 1009.8 hPa | - | - | - | - |
| 1778026041 | 3.33° C | 90% | 1009.7 hPa | - | - | - | - |
| 1778024841 | 3.33° C | 87% | 1009.6 hPa | - | - | - | - |
* Rain since midnight (hover to see other rain measurements)
** Current wind speed in m/s (hover to see current wind gust speed)